Quad City International Airport Moline US
ICAO: KMLI
IATA: MLI
Category: Large
Scheduled Services: Yes

Elevation: 590 ft
TransAlt. 18000 ft.

Airport Communications:
APP/DEP:118.2
ATIS:121.2
CLNC DEL:123.95
CTAF:119.4
GND:121.9
KANKAKEE RDO:122.6
TWR:119.4
UNICOM:122.95

KMLI Zoom In..

Runways:

(A) RW 05 length 5015 ft width 150 ft
---- / hdg 48

(B) RW 09 length 10002 ft width 150 ft
ILS 110.50 / hdg 90

(C) RW 13 length 7301 ft width 150 ft
---- / hdg 126

(D) RW 23 length 5015 ft width 150 ft
---- / hdg 228

(E) RW 27 length 10002 ft width 150 ft
ILS 110.50 / hdg 270

(F) RW 31 length 7301 ft width 150 ft
---- / hdg 306

Location; KMLI
Day. 21 / Time. 14.52 Zulu
* Altimeter: 30.05
* Temperature: 15° c. 59°f.
* Wind from: 120° Speed 06 kn.
Dewpoint: 14° c.
Visibility: 4 Statute Miles.
Clouds: Overcast 700 ft.
Conditions: Mist.

KMLI 211452Z 12006KT 4SM BR OVC007 15/14 A3005 RMK AO2 RAE1356 SLP175 P0000 60000 T01500139 50001


Wind From 120°
Speed 06 kn.

 
 
jpsmedia.com for Web Design SOUNDCLOUD worldairports.se 2018   terms of use